地図

経路データ

SID SEASON NUMBER BASIN SUBBASIN NAME ISO_TIME NATURE LAT LON WMO_WIND WMO_PRES WMO_AGENCY TRACK_TYPE DIST2LAND LANDFALL IFLAG USA_AGENCY USA_ATCF_ID USA_LAT USA_LON USA_RECORD USA_STATUS USA_WIND USA_PRES USA_SSHS USA_R34_NE USA_R34_SE USA_R34_SW USA_R34_NW USA_R50_NE USA_R50_SE USA_R50_SW USA_R50_NW USA_R64_NE USA_R64_SE USA_R64_SW USA_R64_NW USA_POCI USA_ROCI USA_RMW USA_EYE TOKYO_LAT TOKYO_LON TOKYO_GRADE TOKYO_WIND TOKYO_PRES TOKYO_R50_DIR TOKYO_R50_LONG TOKYO_R50_SHORT TOKYO_R30_DIR TOKYO_R30_LONG TOKYO_R30_SHORT TOKYO_LAND CMA_LAT CMA_LON CMA_CAT CMA_WIND CMA_PRES HKO_LAT HKO_LON HKO_CAT HKO_WIND HKO_PRES NEWDELHI_LAT NEWDELHI_LON NEWDELHI_GRADE NEWDELHI_WIND NEWDELHI_PRES NEWDELHI_CI NEWDELHI_DP NEWDELHI_POCI REUNION_LAT REUNION_LON REUNION_TYPE REUNION_WIND REUNION_PRES REUNION_TNUM REUNION_CI REUNION_RMW REUNION_R34_NE REUNION_R34_SE REUNION_R34_SW REUNION_R34_NW REUNION_R50_NE REUNION_R50_SE REUNION_R50_SW REUNION_R50_NW REUNION_R64_NE REUNION_R64_SE REUNION_R64_SW REUNION_R64_NW BOM_LAT BOM_LON BOM_TYPE BOM_WIND BOM_PRES BOM_TNUM BOM_CI BOM_RMW BOM_R34_NE BOM_R34_SE BOM_R34_SW BOM_R34_NW BOM_R50_NE BOM_R50_SE BOM_R50_SW BOM_R50_NW BOM_R64_NE BOM_R64_SE BOM_R64_SW BOM_R64_NW BOM_ROCI BOM_POCI BOM_EYE BOM_POS_METHOD BOM_PRES_METHOD NADI_LAT NADI_LON NADI_CAT NADI_WIND NADI_PRES WELLINGTON_LAT WELLINGTON_LON WELLINGTON_WIND WELLINGTON_PRES DS824_LAT DS824_LON DS824_STAGE DS824_WIND DS824_PRES TD9636_LAT TD9636_LON TD9636_STAGE TD9636_WIND TD9636_PRES TD9635_LAT TD9635_LON TD9635_WIND TD9635_PRES TD9635_ROCI NEUMANN_LAT NEUMANN_LON NEUMANN_CLASS NEUMANN_WIND NEUMANN_PRES MLC_LAT MLC_LON MLC_CLASS MLC_WIND MLC_PRES USA_GUST BOM_GUST BOM_GUST_PER REUNION_GUST REUNION_GUST_PER USA_SEAHGT USA_SEARAD_NE USA_SEARAD_SE USA_SEARAD_SW USA_SEARAD_NW STORM_SPEED STORM_DIR
1922123N11145 1922 28 WP MM NOT_NAMED 1922-05-02 22:00:00 NR 10.5000 145.000 main 1422 1422 __________O___ -1 10.5000 145.000 2 8 279
1922123N11145 1922 28 WP MM NOT_NAMED 1922-05-03 00:00:00 NR 10.5395 144.745 main 1427 1427 __________P___ -1 10.5395 144.745 2 8 279
1922123N11145 1922 28 WP MM NOT_NAMED 1922-05-03 03:00:00 NR 10.6025 144.371 main 1443 1443 __________P___ -1 10.6025 144.371 2 7 281
1922123N11145 1922 28 WP MM NOT_NAMED 1922-05-03 06:00:00 NR 10.6757 144.017 main 1462 1462 __________P___ -1 10.6757 144.017 2 7 284
1922123N11145 1922 28 WP MM NOT_NAMED 1922-05-03 09:00:00 NR 10.7653 143.697 main 1480 1480 __________P___ -1 10.7653 143.697 2 6 287
1922123N11145 1922 28 WP MM NOT_NAMED 1922-05-03 10:00:00 NR 10.8000 143.600 main 1483 1483 __________O___ -1 10.8000 143.600 2 6 293
1922123N11145 1922 28 WP MM NOT_NAMED 1922-05-03 12:00:00 NR 10.8780 143.422 main 1499 1499 __________P___ -1 10.8780 143.422 2 5 299
1922123N11145 1922 28 WP MM NOT_NAMED 1922-05-03 15:00:00 NR 11.0199 143.192 main 1515 1515 __________P___ -1 11.0199 143.192 2 5 308
1922123N11145 1922 28 WP MM NOT_NAMED 1922-05-03 18:00:00 NR 11.1974 143.002 main 1529 1529 __________P___ -1 11.1974 143.002 2 5 319
1922123N11145 1922 28 WP MM NOT_NAMED 1922-05-03 21:00:00 NR 11.4166 142.846 main 1542 1542 __________P___ -1 11.4166 142.846 2 5 327
1922123N11145 1922 28 WP MM NOT_NAMED 1922-05-03 22:00:00 NR 11.5000 142.800 main 1553 1553 __________O___ -1 11.5000 142.800 2 6 333
1922123N11145 1922 28 WP MM NOT_NAMED 1922-05-04 00:00:00 NR 11.6745 142.708 main 1571 1571 __________P___ -1 11.6745 142.708 2 6 337
1922123N11145 1922 28 WP MM NOT_NAMED 1922-05-04 03:00:00 NR 11.9740 142.595 main 1599 1599 __________P___ -1 11.9740 142.595 2 7 343
1922123N11145 1922 28 WP MM NOT_NAMED 1922-05-04 06:00:00 NR 12.3103 142.504 main 1628 1628 __________P___ -1 12.3103 142.504 2 7 347
1922123N11145 1922 28 WP MM NOT_NAMED 1922-05-04 09:00:00 NR 12.6742 142.425 main 1667 1667 __________P___ -1 12.6742 142.425 2 8 348
1922123N11145 1922 28 WP MM NOT_NAMED 1922-05-04 10:00:00 NR 12.8000 142.400 main 1678 1678 __________O___ -1 12.8000 142.400 2 8 348
1922123N11145 1922 28 WP MM NOT_NAMED 1922-05-04 12:00:00 NR 13.0495 142.339 main 1697 1708 __________P___ -1 13.0495 142.339 2 8 347
1922123N11145 1922 28 WP MM NOT_NAMED 1922-05-04 15:00:00 NR 13.4428 142.254 main 1740 1746 __________P___ -1 13.4428 142.254 2 8 349
1922123N11145 1922 28 WP MM NOT_NAMED 1922-05-04 18:00:00 NR 13.8504 142.179 main 1787 1787 __________P___ -1 13.8504 142.179 2 8 351
1922123N11145 1922 28 WP MM NOT_NAMED 1922-05-04 21:00:00 NR 14.2630 142.117 main 1807 1807 __________P___ -1 14.2630 142.117 2 8 352
1922123N11145 1922 28 WP MM NOT_NAMED 1922-05-04 22:00:00 NR 14.4000 142.100 main 1809 1809 __________O___ -1 14.4000 142.100 2 8 353
1922123N11145 1922 28 WP MM NOT_NAMED 1922-05-05 00:00:00 NR 14.6745 142.067 main 1815 1807 __________P___ -1 14.6745 142.067 2 8 354
1922123N11145 1922 28 WP MM NOT_NAMED 1922-05-05 03:00:00 NR 15.0865 142.029 main 1812 1812 __________P___ -1 15.0865 142.029 2 8 356
1922123N11145 1922 28 WP MM NOT_NAMED 1922-05-05 06:00:00 NR 15.4903 142.007 main 1819 1819 __________P___ -1 15.4903 142.007 2 8 357
1922123N11145 1922 28 WP MM NOT_NAMED 1922-05-05 09:00:00 NR 15.8767 141.999 main 1827 1827 __________P___ -1 15.8767 141.999 2 8 359
1922123N11145 1922 28 WP MM NOT_NAMED 1922-05-05 10:00:00 NR 16.0000 142.000 main 1829 1829 __________O___ -1 16.0000 142.000 2 7 2
1922123N11145 1922 28 WP MM NOT_NAMED 1922-05-05 12:00:00 NR 16.2370 142.006 main 1834 1836 __________P___ -1 16.2370 142.006 2 7 0
1922123N11145 1922 28 WP MM NOT_NAMED 1922-05-05 15:00:00 NR 16.5725 142.026 main 1844 1844 __________P___ -1 16.5725 142.026 2 7 4
1922123N11145 1922 28 WP MM NOT_NAMED 1922-05-05 18:00:00 NR 16.8904 142.055 main 1862 1862 __________P___ -1 16.8904 142.055 2 6 5
1922123N11145 1922 28 WP MM NOT_NAMED 1922-05-05 21:00:00 NR 17.1983 142.088 main 1870 1870 __________P___ -1 17.1983 142.088 2 6 5
1922123N11145 1922 28 WP MM NOT_NAMED 1922-05-05 22:00:00 NR 17.3000 142.100 main 1873 __________O___ -1 17.3000 142.100 2 6 14

デジタル台風データ・検索

IBTrACS Databaseについて

本データベースは、米国NOAAが公開する1842年以降の世界の熱帯低気圧のベストトラックデータアーカイブInternational Best Track Archive for Climate Stewardship (IBTrACS)を、ウェブで閲覧しやすい形式に変換したものです。

最終更新日:2021-12-03